createdAt,value
2018-12-06T00:02:51.230Z,1.80
2018-12-06T00:06:55.995Z,1.70
2018-12-06T00:11:00.395Z,1.70
2018-12-06T00:15:30.636Z,1.70
2018-12-06T00:19:36.195Z,1.50
2018-12-06T00:23:40.496Z,1.80
2018-12-06T00:27:45.097Z,1.70
2018-12-06T00:31:49.400Z,1.80
2018-12-06T00:35:54.270Z,1.70
2018-12-06T00:39:58.584Z,1.70
2018-12-06T00:44:02.760Z,1.70
2018-12-06T00:48:08.423Z,1.70
2018-12-06T00:52:12.607Z,1.70
2018-12-06T00:56:18.139Z,1.70
2018-12-06T01:00:23.622Z,1.70
2018-12-06T01:05:15.470Z,1.70
2018-12-06T01:09:19.748Z,1.70
2018-12-06T01:13:23.914Z,1.70
2018-12-06T01:17:29.283Z,1.70
2018-12-06T01:21:33.642Z,1.70
2018-12-06T01:25:37.834Z,1.60
2018-12-06T01:30:13.092Z,1.30
2018-12-06T01:34:17.282Z,1.70
2018-12-06T01:38:21.556Z,1.30
2018-12-06T01:42:25.845Z,1.60
2018-12-06T01:46:30.188Z,1.50
2018-12-06T01:50:34.397Z,1.50
2018-12-06T01:54:38.675Z,1.50
2018-12-06T01:58:42.832Z,1.50
2018-12-06T02:02:47.025Z,1.40
2018-12-06T02:06:51.260Z,1.30
2018-12-06T02:10:55.414Z,0.90
2018-12-06T02:14:59.696Z,1.20
2018-12-06T02:19:03.904Z,1.20
2018-12-06T02:23:08.197Z,1.10
2018-12-06T02:27:12.354Z,1.10
2018-12-06T02:31:16.607Z,1.00
2018-12-06T02:35:20.804Z,0.90
2018-12-06T02:39:25.196Z,0.90
2018-12-06T02:43:29.354Z,0.90
2018-12-06T02:47:33.611Z,0.80
2018-12-06T02:51:37.801Z,0.80
2018-12-06T02:55:42.043Z,0.80
2018-12-06T02:59:46.217Z,0.80
2018-12-06T03:03:50.399Z,0.80
2018-12-06T03:07:54.726Z,0.80
2018-12-06T03:11:58.876Z,0.80
2018-12-06T03:16:03.118Z,0.80
2018-12-06T03:20:08.074Z,0.80
2018-12-06T03:24:12.288Z,0.90
2018-12-06T03:28:16.640Z,0.70
2018-12-06T03:32:20.891Z,1.00
2018-12-06T03:36:25.048Z,1.00
2018-12-06T03:40:29.288Z,1.10
2018-12-06T03:44:36.560Z,1.20
2018-12-06T03:48:40.735Z,1.20
2018-12-06T03:52:45.010Z,1.30
2018-12-06T03:56:49.170Z,1.30
2018-12-06T04:00:53.543Z,1.30
2018-12-06T04:04:57.860Z,1.30
2018-12-06T04:09:01.995Z,1.40
2018-12-06T04:13:06.331Z,1.40
2018-12-06T04:17:10.498Z,1.40
2018-12-06T04:21:14.692Z,1.20
2018-12-06T04:25:18.843Z,1.40
2018-12-06T04:29:23.045Z,1.50
2018-12-06T04:33:27.171Z,1.40
2018-12-06T04:37:31.402Z,1.40
2018-12-06T04:41:35.646Z,1.40
2018-12-06T04:45:39.790Z,1.40
2018-12-06T04:49:43.983Z,1.40
2018-12-06T04:53:48.128Z,1.40
2018-12-06T04:57:52.423Z,1.50
2018-12-06T05:01:56.657Z,1.50
2018-12-06T05:06:00.889Z,1.50
2018-12-06T05:10:05.784Z,1.50
2018-12-06T05:14:10.057Z,1.50
2018-12-06T05:18:14.211Z,1.50
2018-12-06T05:22:18.449Z,1.10
2018-12-06T05:26:22.622Z,1.50
2018-12-06T05:30:26.859Z,1.50
2018-12-06T05:34:31.014Z,1.60
2018-12-06T05:38:35.178Z,1.60
2018-12-06T05:42:39.319Z,1.60
2018-12-06T05:46:43.546Z,1.70
2018-12-06T05:50:47.651Z,1.70
2018-12-06T05:54:51.901Z,1.60
2018-12-06T05:58:56.036Z,1.70
2018-12-06T06:03:00.594Z,1.70
2018-12-06T06:07:16.050Z,1.70
2018-12-06T06:11:20.799Z,1.60
2018-12-06T06:15:25.031Z,1.60
2018-12-06T06:19:29.185Z,1.60
2018-12-06T06:23:33.389Z,1.50
2018-12-06T06:27:37.701Z,1.50
2018-12-06T06:31:41.978Z,1.60
2018-12-06T06:35:49.273Z,1.60
2018-12-06T06:39:53.564Z,1.60
2018-12-06T06:43:57.810Z,1.60
2018-12-06T06:48:01.986Z,1.60
2018-12-06T06:52:06.270Z,1.60
2018-12-06T06:56:10.573Z,1.60
2018-12-06T07:00:14.913Z,1.60
2018-12-06T07:04:19.218Z,1.70
2018-12-06T07:08:23.390Z,1.70
2018-12-06T07:12:27.554Z,1.70
2018-12-06T07:16:31.778Z,1.70
2018-12-06T07:20:35.930Z,1.70
2018-12-06T07:24:40.543Z,1.80
2018-12-06T07:28:44.913Z,1.90
2018-12-06T07:32:49.115Z,1.90
2018-12-06T07:36:53.303Z,1.90
2018-12-06T07:40:57.602Z,2.10
2018-12-06T07:45:01.797Z,2.20
2018-12-06T07:49:07.195Z,2.30
2018-12-06T07:53:11.367Z,2.30
2018-12-06T07:57:15.716Z,2.40
2018-12-06T08:01:19.882Z,2.50
2018-12-06T08:05:24.151Z,2.60
2018-12-06T08:09:28.676Z,2.60
2018-12-06T08:13:33.236Z,2.80
2018-12-06T08:17:37.719Z,2.80
2018-12-06T08:21:42.946Z,3.00
2018-12-06T08:25:48.806Z,3.20
2018-12-06T08:29:57.460Z,3.10
2018-12-06T08:34:06.430Z,3.30
2018-12-06T08:38:12.770Z,3.30
2018-12-06T08:42:17.063Z,3.40
2018-12-06T08:46:21.245Z,3.40
2018-12-06T08:50:25.556Z,3.50
2018-12-06T08:54:29.786Z,3.40
2018-12-06T08:58:34.071Z,3.40
2018-12-06T09:02:40.294Z,3.60
2018-12-06T09:06:44.748Z,3.70
2018-12-06T09:10:51.775Z,3.90
2018-12-06T09:14:55.176Z,4.10
2018-12-06T09:18:59.427Z,3.90
2018-12-06T09:23:03.799Z,3.80
2018-12-06T09:27:09.008Z,3.80
2018-12-06T09:31:13.234Z,4.00
2018-12-06T09:35:17.515Z,4.10
2018-12-06T09:39:21.817Z,4.20
2018-12-06T09:43:25.994Z,4.30
2018-12-06T09:47:30.303Z,4.40
2018-12-06T09:51:34.621Z,4.50
2018-12-06T09:55:38.963Z,4.60
2018-12-06T09:59:43.201Z,4.50
2018-12-06T10:03:47.458Z,4.60
2018-12-06T10:07:51.781Z,4.60
2018-12-06T10:11:55.993Z,4.60
2018-12-06T10:16:00.244Z,4.60
2018-12-06T10:20:04.882Z,4.50
2018-12-06T10:24:09.214Z,4.60
2018-12-06T10:28:13.441Z,4.70
2018-12-06T10:32:17.595Z,4.70
2018-12-06T10:36:21.832Z,4.70
2018-12-06T10:40:26.068Z,4.80
2018-12-06T10:44:31.423Z,4.60
2018-12-06T10:48:35.642Z,4.40
2018-12-06T10:52:39.767Z,4.10
2018-12-06T10:56:43.991Z,4.10
2018-12-06T11:00:57.165Z,4.10
2018-12-06T11:04:59.780Z,4.20
2018-12-06T11:09:05.466Z,4.30
2018-12-06T11:13:09.750Z,4.30
2018-12-06T11:17:13.879Z,4.40
2018-12-06T11:21:18.023Z,4.40
2018-12-06T11:25:22.175Z,4.30
2018-12-06T11:29:26.400Z,4.20
2018-12-06T11:33:30.570Z,4.20
2018-12-06T11:37:34.798Z,4.10
2018-12-06T11:41:42.924Z,4.00
2018-12-06T11:45:46.010Z,4.00
2018-12-06T11:49:51.211Z,4.10
2018-12-06T11:53:55.415Z,4.20
2018-12-06T11:57:59.643Z,4.20
2018-12-06T12:02:09.891Z,4.00
2018-12-06T12:06:10.122Z,4.20
2018-12-06T12:10:14.324Z,4.10
2018-12-06T12:14:18.444Z,3.90
2018-12-06T12:18:22.623Z,3.90
2018-12-06T12:22:26.758Z,4.00
2018-12-06T12:26:31.003Z,3.90
2018-12-06T12:30:35.141Z,3.80
2018-12-06T12:34:39.428Z,3.80
2018-12-06T12:38:43.690Z,3.60
2018-12-06T12:42:47.907Z,3.70
2018-12-06T12:46:52.101Z,3.80
2018-12-06T12:50:56.465Z,3.80
2018-12-06T12:55:00.558Z,4.00
2018-12-06T12:59:04.827Z,4.30
2018-12-06T13:03:08.962Z,4.50
2018-12-06T13:07:13.859Z,4.80
2018-12-06T13:11:18.115Z,4.90
2018-12-06T13:15:22.270Z,4.60
2018-12-06T13:19:26.549Z,4.60
2018-12-06T13:23:30.723Z,4.40
2018-12-06T13:27:34.859Z,4.50
2018-12-06T13:31:39.039Z,4.40
2018-12-06T13:35:43.252Z,4.10
2018-12-06T13:39:47.492Z,4.10
2018-12-06T13:43:52.760Z,4.00
2018-12-06T13:47:56.975Z,3.90
2018-12-06T13:52:01.175Z,3.90
2018-12-06T13:56:05.537Z,4.00
2018-12-06T14:00:10.256Z,4.00
2018-12-06T14:04:14.598Z,4.00
2018-12-06T14:08:18.957Z,4.10
2018-12-06T14:12:23.868Z,4.00
2018-12-06T14:16:28.082Z,4.00
2018-12-06T14:20:32.262Z,4.10
2018-12-06T14:24:36.470Z,4.30
2018-12-06T14:28:40.651Z,4.30
2018-12-06T14:32:44.890Z,4.10
2018-12-06T14:37:01.523Z,3.80
2018-12-06T14:40:56.267Z,3.60
2018-12-06T14:45:00.418Z,3.50
2018-12-06T14:49:04.708Z,3.50
2018-12-06T14:53:08.811Z,3.40
2018-12-06T14:57:13.011Z,3.30
2018-12-06T15:01:17.160Z,3.40
2018-12-06T15:05:21.310Z,3.40
2018-12-06T15:09:25.583Z,3.30
2018-12-06T15:13:29.728Z,3.30
2018-12-06T15:17:33.972Z,3.30
2018-12-06T15:21:38.175Z,3.40
2018-12-06T15:25:42.341Z,3.40
2018-12-06T15:29:46.846Z,3.40
2018-12-06T15:33:51.018Z,3.30
2018-12-06T15:37:55.351Z,3.20
2018-12-06T15:41:59.506Z,3.30
2018-12-06T15:46:03.687Z,3.30
2018-12-06T15:50:08.056Z,3.30
2018-12-06T15:54:12.234Z,3.30
2018-12-06T15:58:16.503Z,3.00
2018-12-06T16:02:20.699Z,2.80
2018-12-06T16:06:24.842Z,2.70
2018-12-06T16:10:29.497Z,2.30
2018-12-06T16:14:33.698Z,2.20
2018-12-06T16:18:37.977Z,2.00
2018-12-06T16:22:42.127Z,2.00
2018-12-06T16:26:46.371Z,2.10
2018-12-06T16:30:50.552Z,2.10
2018-12-06T16:34:54.778Z,2.20
2018-12-06T16:38:58.958Z,2.30
2018-12-06T16:43:03.677Z,2.40
2018-12-06T16:47:07.857Z,2.40
2018-12-06T16:51:12.130Z,2.60
2018-12-06T16:55:16.307Z,2.60
2018-12-06T16:59:20.619Z,2.70
2018-12-06T17:03:25.053Z,2.70
2018-12-06T17:07:29.293Z,2.80
2018-12-06T17:11:33.730Z,2.80
2018-12-06T17:15:38.120Z,2.80
2018-12-06T17:19:42.401Z,2.90
2018-12-06T17:23:46.656Z,2.90
2018-12-06T17:27:51.921Z,2.80
2018-12-06T17:31:56.071Z,2.80
2018-12-06T17:36:01.718Z,2.80
2018-12-06T17:40:08.824Z,2.80
2018-12-06T17:44:13.043Z,2.80
2018-12-06T17:48:17.226Z,2.80
2018-12-06T17:52:21.718Z,2.90
2018-12-06T17:56:26.306Z,2.90
2018-12-06T18:00:30.939Z,3.00
2018-12-06T18:04:35.249Z,2.90
2018-12-06T18:08:39.447Z,2.80
2018-12-06T18:12:43.711Z,2.60
2018-12-06T18:16:47.909Z,2.50
2018-12-06T18:20:52.115Z,2.50
2018-12-06T18:24:56.377Z,2.50
2018-12-06T18:29:00.540Z,2.40
2018-12-06T18:33:06.276Z,2.20
2018-12-06T18:37:10.463Z,2.10
2018-12-06T18:41:16.029Z,1.80
2018-12-06T18:45:20.637Z,1.60
2018-12-06T18:49:24.909Z,1.40
2018-12-06T18:53:29.761Z,1.20
2018-12-06T18:57:34.357Z,1.10
2018-12-06T19:01:38.787Z,0.70
2018-12-06T19:05:43.033Z,0.90
2018-12-06T19:09:47.192Z,0.80
2018-12-06T19:13:52.502Z,0.70
2018-12-06T19:17:57.395Z,0.60
2018-12-06T19:22:02.125Z,0.50
2018-12-06T19:26:06.891Z,0.40
2018-12-06T19:30:11.687Z,-0.10
2018-12-06T19:34:16.812Z,0.30
2018-12-06T19:38:21.945Z,0.20
2018-12-06T19:42:26.528Z,0.10
2018-12-06T19:46:31.065Z,0.10
2018-12-06T19:50:36.059Z,-0.30
2018-12-06T19:54:41.256Z,-0.10
2018-12-06T19:58:46.240Z,-0.40
2018-12-06T20:02:51.492Z,0.10
2018-12-06T20:06:56.087Z,-0.60
2018-12-06T20:11:00.541Z,-0.10
2018-12-06T20:15:05.858Z,-0.10
2018-12-06T20:19:10.632Z,-0.20
2018-12-06T20:23:15.214Z,-0.40
2018-12-06T20:27:19.859Z,-0.70
2018-12-06T20:31:24.155Z,-0.20
2018-12-06T20:35:28.460Z,-0.40
2018-12-06T20:39:32.793Z,-0.20
2018-12-06T20:43:36.961Z,-0.40
2018-12-06T20:47:41.180Z,-0.20
2018-12-06T20:51:45.335Z,-0.40
2018-12-06T20:55:52.329Z,-0.30
2018-12-06T20:59:56.540Z,-0.40
2018-12-06T21:04:00.822Z,-0.60
2018-12-06T21:08:05.007Z,-0.50
2018-12-06T21:12:09.266Z,-0.30
2018-12-06T21:16:13.422Z,-0.40
2018-12-06T21:20:17.650Z,-0.40
2018-12-06T21:24:21.851Z,-0.50
2018-12-06T21:28:28.189Z,-0.50
2018-12-06T21:32:32.397Z,-0.60
2018-12-06T21:36:36.619Z,-0.60
2018-12-06T21:40:40.763Z,-0.50
2018-12-06T21:44:45.041Z,-0.70
2018-12-06T21:48:49.188Z,-0.50
2018-12-06T21:52:53.419Z,-0.70
2018-12-06T21:56:57.636Z,-0.80
2018-12-06T22:01:01.864Z,-0.60
2018-12-06T22:05:06.219Z,-0.70
2018-12-06T22:09:10.434Z,-0.90
2018-12-06T22:13:14.676Z,-0.80
2018-12-06T22:17:18.811Z,-0.90
2018-12-06T22:21:22.996Z,-0.80
2018-12-06T22:25:27.151Z,-0.80
2018-12-06T22:29:31.341Z,-0.80
2018-12-06T22:33:35.538Z,-1.10
2018-12-06T22:37:39.783Z,-0.90
2018-12-06T22:41:43.959Z,-0.70
2018-12-06T22:46:02.667Z,-0.90
2018-12-06T22:50:06.866Z,-0.90
2018-12-06T22:54:11.012Z,-0.70
2018-12-06T22:58:15.148Z,-0.90
2018-12-06T23:02:19.562Z,-0.80
2018-12-06T23:06:23.694Z,-0.80
2018-12-06T23:10:28.006Z,-0.90
2018-12-06T23:14:32.178Z,-0.80
2018-12-06T23:18:36.331Z,-0.90
2018-12-06T23:22:40.487Z,-0.80
2018-12-06T23:26:44.630Z,-0.80
2018-12-06T23:30:48.866Z,-1.20
2018-12-06T23:34:53.006Z,-0.80
2018-12-06T23:38:57.237Z,-0.90
2018-12-06T23:43:01.437Z,-0.90
2018-12-06T23:47:05.752Z,-0.80
2018-12-06T23:51:20.989Z,-0.70
2018-12-06T23:55:25.168Z,-0.70
2018-12-06T23:59:29.438Z,-0.70
